createdAt,value
2018-03-24T00:02:20.716Z,5.00
2018-03-24T00:04:47.915Z,4.90
2018-03-24T00:07:14.112Z,5.00
2018-03-24T00:09:42.411Z,5.00
2018-03-24T00:12:10.329Z,5.10
2018-03-24T00:14:37.051Z,5.10
2018-03-24T00:17:03.319Z,5.20
2018-03-24T00:31:49.846Z,5.20
2018-03-24T00:34:17.059Z,5.20
2018-03-24T00:36:44.424Z,5.30
2018-03-24T00:39:12.129Z,5.30
2018-03-24T00:41:38.407Z,5.30
2018-03-24T00:44:07.518Z,5.30
2018-03-24T00:46:35.137Z,5.30
2018-03-24T00:49:03.245Z,5.30
2018-03-24T00:51:31.078Z,5.30
2018-03-24T00:53:58.754Z,5.30
2018-03-24T00:56:25.801Z,5.20
2018-03-24T00:58:52.058Z,5.20
2018-03-24T01:01:19.825Z,5.20
2018-03-24T01:03:47.076Z,4.80
2018-03-24T01:06:14.223Z,5.20
2018-03-24T01:08:41.327Z,5.20
2018-03-24T01:11:10.130Z,5.30
2018-03-24T01:13:37.930Z,5.30
2018-03-24T01:16:08.667Z,5.30
2018-03-24T01:18:36.663Z,5.30
2018-03-24T01:21:05.540Z,5.40
2018-03-24T01:23:34.116Z,5.40
2018-03-24T01:26:00.423Z,5.30
2018-03-24T01:28:27.582Z,5.40
2018-03-24T01:30:55.330Z,5.40
2018-03-24T01:33:22.296Z,5.40
2018-03-24T01:35:49.219Z,5.30
2018-03-24T01:38:15.474Z,5.30
2018-03-24T01:40:43.583Z,5.30
2018-03-24T01:43:10.155Z,5.30
2018-03-24T01:45:38.139Z,5.30
2018-03-24T01:48:05.290Z,5.30
2018-03-24T01:50:31.507Z,5.40
2018-03-24T01:52:57.737Z,5.40
2018-03-24T01:55:25.843Z,5.40
2018-03-24T01:57:53.832Z,5.40
2018-03-24T02:00:20.989Z,5.40
2018-03-24T02:02:48.780Z,5.40
2018-03-24T02:05:16.049Z,5.40
2018-03-24T02:07:44.691Z,5.40
2018-03-24T02:10:12.351Z,5.30
2018-03-24T02:12:39.319Z,5.40
2018-03-24T02:15:07.879Z,5.30
2018-03-24T02:17:35.761Z,5.40
2018-03-24T02:20:02.561Z,5.40
2018-03-24T02:22:30.711Z,5.30
2018-03-24T02:25:02.152Z,5.30
2018-03-24T02:27:30.874Z,5.30
2018-03-24T02:29:59.954Z,5.30
2018-03-24T02:32:26.164Z,5.40
2018-03-24T02:34:52.401Z,5.30
2018-03-24T02:37:18.607Z,5.30
2018-03-24T02:39:47.499Z,5.30
2018-03-24T02:42:13.927Z,5.30
2018-03-24T02:44:41.550Z,5.30
2018-03-24T02:47:08.421Z,5.40
2018-03-24T02:49:36.248Z,5.40
2018-03-24T02:52:04.049Z,5.30
2018-03-24T02:54:30.430Z,5.30
2018-03-24T02:56:57.807Z,5.40
2018-03-24T02:59:24.839Z,5.30
2018-03-24T03:01:57.836Z,5.30
2018-03-24T03:04:25.432Z,5.30
2018-03-24T03:06:53.272Z,5.30
2018-03-24T03:09:20.599Z,5.30
2018-03-24T03:11:48.523Z,5.30
2018-03-24T03:14:16.323Z,5.40
2018-03-24T03:16:43.542Z,5.30
2018-03-24T03:19:11.074Z,5.40
2018-03-24T03:21:44.757Z,5.30
2018-03-24T03:24:14.120Z,5.30
2018-03-24T03:26:41.084Z,5.20
2018-03-24T03:29:08.143Z,5.20
2018-03-24T03:31:35.232Z,5.10
2018-03-24T03:34:03.080Z,5.00
2018-03-24T03:36:30.444Z,5.00
2018-03-24T03:38:57.592Z,4.90
2018-03-24T03:41:26.355Z,4.90
2018-03-24T03:43:53.403Z,4.90
2018-03-24T03:46:23.318Z,4.90
2018-03-24T03:48:51.368Z,4.90
2018-03-24T03:51:27.219Z,4.90
2018-03-24T03:53:56.090Z,4.90
2018-03-24T03:56:23.180Z,4.80
2018-03-24T03:58:50.256Z,4.90
2018-03-24T04:01:16.471Z,4.80
2018-03-24T04:03:43.682Z,4.90
2018-03-24T04:06:10.670Z,4.80
2018-03-24T04:08:36.987Z,5.00
2018-03-24T04:11:03.742Z,4.80
2018-03-24T04:13:30.987Z,4.80
2018-03-24T04:15:58.220Z,4.80
2018-03-24T04:18:24.402Z,4.80
2018-03-24T04:20:51.978Z,4.80
2018-03-24T04:23:21.197Z,4.70
2018-03-24T04:25:49.575Z,4.70
2018-03-24T04:28:16.653Z,4.70
2018-03-24T04:30:43.838Z,4.70
2018-03-24T04:33:10.261Z,4.70
2018-03-24T04:35:39.764Z,4.60
2018-03-24T04:38:06.909Z,4.60
2018-03-24T04:40:33.118Z,4.60
2018-03-24T04:43:00.664Z,4.60
2018-03-24T04:45:28.604Z,4.60
2018-03-24T04:47:56.989Z,4.60
2018-03-24T04:50:25.728Z,4.50
2018-03-24T04:52:52.953Z,4.50
2018-03-24T04:55:19.190Z,4.50
2018-03-24T04:57:47.823Z,4.40
2018-03-24T05:00:16.555Z,4.40
2018-03-24T05:02:42.750Z,4.30
2018-03-24T05:05:10.394Z,4.20
2018-03-24T05:07:39.889Z,4.20
2018-03-24T05:10:06.870Z,4.20
2018-03-24T05:12:33.090Z,4.30
2018-03-24T05:15:00.659Z,4.30
2018-03-24T05:17:27.700Z,4.30
2018-03-24T05:19:58.860Z,4.30
2018-03-24T05:22:26.584Z,4.20
2018-03-24T05:24:53.947Z,4.20
2018-03-24T05:27:21.766Z,4.20
2018-03-24T05:29:49.108Z,4.20
2018-03-24T05:42:01.666Z,4.20
2018-03-24T05:44:28.229Z,4.20
2018-03-24T05:46:55.872Z,4.20
2018-03-24T05:49:22.911Z,4.20
2018-03-24T05:51:49.471Z,4.40
2018-03-24T05:54:16.555Z,4.50
2018-03-24T05:56:43.690Z,4.60
2018-03-24T05:59:11.671Z,4.70
2018-03-24T06:01:39.672Z,4.70
2018-03-24T06:04:07.338Z,4.80
2018-03-24T06:06:33.538Z,5.00
2018-03-24T06:09:01.143Z,5.10
2018-03-24T06:11:27.412Z,5.10
2018-03-24T06:13:55.362Z,5.40
2018-03-24T06:16:24.001Z,5.90
2018-03-24T06:18:50.228Z,6.00
2018-03-24T06:21:17.599Z,6.00
2018-03-24T06:23:43.820Z,6.20
2018-03-24T06:26:10.053Z,6.40
2018-03-24T06:28:36.433Z,6.60
2018-03-24T06:31:06.482Z,6.80
2018-03-24T06:33:34.636Z,6.80
2018-03-24T06:36:02.083Z,6.90
2018-03-24T06:38:30.774Z,7.10
2018-03-24T06:41:00.688Z,7.30
2018-03-24T06:43:26.987Z,7.20
2018-03-24T06:45:54.296Z,7.70
2018-03-24T06:48:21.156Z,7.80
2018-03-24T06:50:49.001Z,8.20
2018-03-24T06:53:15.478Z,8.40
2018-03-24T06:55:42.481Z,8.70
2018-03-24T06:58:10.650Z,9.00
2018-03-24T07:00:37.904Z,9.20
2018-03-24T07:03:05.630Z,9.30
2018-03-24T07:05:36.974Z,9.30
2018-03-24T07:08:05.147Z,9.40
2018-03-24T07:10:31.360Z,9.40
2018-03-24T07:12:58.562Z,9.70
2018-03-24T07:15:26.137Z,10.00
2018-03-24T07:17:52.359Z,10.60
2018-03-24T07:20:21.322Z,10.80
2018-03-24T07:22:52.832Z,11.10
2018-03-24T07:25:20.659Z,11.40
2018-03-24T07:27:47.630Z,12.00
2018-03-24T07:30:14.929Z,12.00
2018-03-24T07:32:41.210Z,12.80
2018-03-24T07:35:09.123Z,12.80
2018-03-24T07:37:37.116Z,12.90
2018-03-24T07:40:05.223Z,12.70
2018-03-24T07:42:32.359Z,12.70
2018-03-24T07:44:58.598Z,12.70
2018-03-24T07:47:26.849Z,12.60
2018-03-24T07:49:53.892Z,12.90
2018-03-24T07:52:20.530Z,13.10
2018-03-24T07:54:46.956Z,13.50
2018-03-24T07:57:13.202Z,13.70
2018-03-24T07:59:44.826Z,13.90
2018-03-24T08:02:11.701Z,13.90
2018-03-24T08:04:38.663Z,14.10
2018-03-24T08:07:06.178Z,14.20
2018-03-24T08:09:33.353Z,14.40
2018-03-24T08:11:59.730Z,14.40
2018-03-24T08:14:25.967Z,14.70
2018-03-24T08:16:52.257Z,14.90
2018-03-24T08:19:18.436Z,14.90
2018-03-24T08:21:48.379Z,15.40
2018-03-24T08:24:15.340Z,16.30
2018-03-24T08:26:43.799Z,17.00
2018-03-24T08:38:55.482Z,16.30
2018-03-24T08:41:22.917Z,15.80
2018-03-24T08:43:49.622Z,15.60
2018-03-24T08:46:15.865Z,15.60
2018-03-24T08:48:43.399Z,15.50
2018-03-24T08:51:10.944Z,15.50
2018-03-24T08:53:38.577Z,15.50
2018-03-24T08:56:05.208Z,15.30
2018-03-24T08:58:32.934Z,15.60
2018-03-24T09:01:00.625Z,15.20
2018-03-24T09:03:27.881Z,15.30
2018-03-24T09:05:54.827Z,15.00
2018-03-24T09:08:21.853Z,15.30
2018-03-24T09:10:50.494Z,15.60
2018-03-24T09:13:18.465Z,15.60
2018-03-24T09:25:30.077Z,16.60
2018-03-24T09:27:57.390Z,16.50
2018-03-24T09:30:24.351Z,16.90
2018-03-24T09:32:54.440Z,16.80
2018-03-24T09:45:06.435Z,18.50
2018-03-24T09:47:32.674Z,18.70
2018-03-24T09:50:00.178Z,19.20
2018-03-24T09:52:27.831Z,20.20
2018-03-24T09:54:54.937Z,20.50
2018-03-24T09:57:21.197Z,20.30
2018-03-24T09:59:47.451Z,20.40
2018-03-24T10:02:13.725Z,21.20
2018-03-24T10:04:39.931Z,20.30
2018-03-24T10:07:06.960Z,20.60
2018-03-24T10:09:33.925Z,20.80
2018-03-24T10:12:00.979Z,20.70
2018-03-24T10:14:27.986Z,20.70
2018-03-24T10:16:55.131Z,20.80
2018-03-24T10:19:23.147Z,20.70
2018-03-24T10:25:00.687Z,21.00
2018-03-24T10:27:26.909Z,20.70
2018-03-24T10:29:55.039Z,21.00
2018-03-24T10:32:22.239Z,21.60
2018-03-24T10:34:54.617Z,21.20
2018-03-24T10:37:21.760Z,21.30
2018-03-24T10:39:47.960Z,20.80
2018-03-24T10:42:15.717Z,21.20
2018-03-24T10:44:43.105Z,21.10
2018-03-24T10:56:54.447Z,22.30
2018-03-24T10:59:20.684Z,22.70
2018-03-24T11:01:50.128Z,21.80
2018-03-24T11:04:16.419Z,22.60
2018-03-24T11:06:43.687Z,23.30
2018-03-24T11:09:12.316Z,23.90
2018-03-24T11:11:40.335Z,22.00
2018-03-24T11:14:06.556Z,19.90
2018-03-24T11:16:32.798Z,19.40
2018-03-24T11:18:59.160Z,20.20
2018-03-24T11:21:26.899Z,21.10
2018-03-24T11:23:53.115Z,21.50
2018-03-24T11:26:20.305Z,20.10
2018-03-24T11:28:46.556Z,19.60
2018-03-24T11:31:14.265Z,18.80
2018-03-24T11:33:40.557Z,18.30
2018-03-24T11:36:08.596Z,17.80
2018-03-24T11:38:34.869Z,16.80
2018-03-24T11:41:01.891Z,16.40
2018-03-24T11:43:29.809Z,16.00
2018-03-24T11:45:56.435Z,15.60
2018-03-24T11:48:24.662Z,15.10
2018-03-24T11:50:50.864Z,15.20
2018-03-24T11:53:20.320Z,16.00
2018-03-24T11:55:47.345Z,16.30
2018-03-24T11:58:14.368Z,16.90
2018-03-24T12:10:25.578Z,22.20
2018-03-24T12:12:53.056Z,22.50
2018-03-24T12:15:21.854Z,23.80
2018-03-24T12:17:48.635Z,24.40
2018-03-24T12:20:15.224Z,23.40
2018-03-24T12:22:42.983Z,24.00
2018-03-24T12:25:11.440Z,24.50
2018-03-24T12:27:39.586Z,25.50
2018-03-24T12:30:05.907Z,25.10
2018-03-24T12:32:32.194Z,24.70
2018-03-24T12:34:59.152Z,25.40
2018-03-24T12:37:25.370Z,26.30
2018-03-24T12:39:52.831Z,26.00
2018-03-24T12:42:19.044Z,26.30
2018-03-24T12:54:31.417Z,27.00
2018-03-24T12:56:59.262Z,25.50
2018-03-24T13:09:10.567Z,19.40
2018-03-24T13:11:36.810Z,18.40
2018-03-24T13:14:04.090Z,18.10
2018-03-24T13:16:30.683Z,19.30
2018-03-24T13:18:58.763Z,19.10
2018-03-24T13:21:27.370Z,18.10
2018-03-24T13:23:53.603Z,18.50
2018-03-24T13:26:20.657Z,18.50
2018-03-24T13:28:46.973Z,17.50
2018-03-24T13:31:13.281Z,17.10
2018-03-24T13:33:40.940Z,16.70
2018-03-24T13:36:07.718Z,16.60
2018-03-24T13:38:33.983Z,16.90
2018-03-24T13:41:02.424Z,17.40
2018-03-24T13:43:28.681Z,18.40
2018-03-24T13:45:55.856Z,17.90
2018-03-24T13:48:23.052Z,17.40
2018-03-24T13:50:50.282Z,18.20
2018-03-24T13:53:16.495Z,18.70
2018-03-24T13:55:43.740Z,19.60
2018-03-24T13:58:11.594Z,20.00
2018-03-24T14:00:38.597Z,20.80
2018-03-24T14:03:05.684Z,21.10
2018-03-24T14:05:32.635Z,20.50
2018-03-24T14:07:59.991Z,20.20
2018-03-24T14:10:27.078Z,19.50
2018-03-24T14:12:53.299Z,18.10
2018-03-24T14:15:19.563Z,18.00
2018-03-24T14:17:45.761Z,16.30
2018-03-24T14:20:12.806Z,16.90
2018-03-24T14:22:39.117Z,17.00
2018-03-24T14:25:05.360Z,18.10
2018-03-24T14:27:31.561Z,18.40
2018-03-24T14:29:59.487Z,17.50
2018-03-24T14:32:26.395Z,17.50
2018-03-24T14:34:53.559Z,16.70
2018-03-24T14:37:20.631Z,15.80
2018-03-24T14:39:47.729Z,16.20
2018-03-24T14:42:14.724Z,16.00
2018-03-24T14:44:41.495Z,15.60
2018-03-24T14:47:08.485Z,15.10
2018-03-24T14:49:36.652Z,15.00
2018-03-24T14:52:03.060Z,15.00
2018-03-24T14:54:31.164Z,15.00
2018-03-24T14:56:57.386Z,15.10
2018-03-24T14:59:24.545Z,15.10
2018-03-24T15:01:50.811Z,15.10
2018-03-24T15:04:17.030Z,14.90
2018-03-24T15:06:43.423Z,14.20
2018-03-24T15:09:10.420Z,14.10
2018-03-24T15:11:37.729Z,14.00
2018-03-24T15:14:04.739Z,13.90
2018-03-24T15:16:30.980Z,13.80
2018-03-24T15:18:58.434Z,13.60
2018-03-24T15:21:25.438Z,13.50
2018-03-24T15:23:51.744Z,13.40
2018-03-24T15:26:18.979Z,13.30
2018-03-24T15:28:59.030Z,13.20
2018-03-24T15:31:38.367Z,13.10
2018-03-24T15:34:17.468Z,13.10
2018-03-24T15:36:45.672Z,13.00
2018-03-24T15:39:12.652Z,13.30
2018-03-24T15:41:38.865Z,13.30
2018-03-24T15:44:05.080Z,13.40
2018-03-24T15:46:32.024Z,13.50
2018-03-24T15:48:58.985Z,13.20
2018-03-24T15:51:25.996Z,13.20
2018-03-24T15:53:52.210Z,13.20
2018-03-24T15:56:19.859Z,13.10
2018-03-24T15:58:46.218Z,13.40
2018-03-24T16:01:13.735Z,13.30
2018-03-24T16:03:40.070Z,13.10
2018-03-24T16:06:06.282Z,12.80
2018-03-24T16:08:32.464Z,12.90
2018-03-24T16:10:58.718Z,12.60
2018-03-24T16:13:26.578Z,12.60
2018-03-24T16:15:52.785Z,12.70
2018-03-24T16:18:18.970Z,12.60
2018-03-24T16:20:45.194Z,12.60
2018-03-24T16:23:11.401Z,12.50
2018-03-24T16:25:38.415Z,12.40
2018-03-24T16:28:04.708Z,12.30
2018-03-24T16:30:30.953Z,12.30
2018-03-24T16:32:58.014Z,12.30
2018-03-24T16:35:25.311Z,12.10
2018-03-24T16:37:51.494Z,12.20
2018-03-24T16:40:17.771Z,12.10
2018-03-24T16:42:45.255Z,11.90
2018-03-24T16:45:11.482Z,11.80
2018-03-24T16:47:37.803Z,11.80
2018-03-24T16:50:04.633Z,11.70
2018-03-24T16:52:31.737Z,11.70
2018-03-24T16:54:58.987Z,11.70
2018-03-24T16:57:25.223Z,11.60
2018-03-24T16:59:51.431Z,11.50
2018-03-24T17:02:17.719Z,11.60
2018-03-24T17:04:44.684Z,11.50
2018-03-24T17:07:10.961Z,11.50
2018-03-24T17:09:37.330Z,11.50
2018-03-24T17:12:03.574Z,11.50
2018-03-24T17:14:29.851Z,11.40
2018-03-24T17:16:56.458Z,11.40
2018-03-24T17:19:22.721Z,11.30
2018-03-24T17:21:49.013Z,11.30
2018-03-24T17:24:15.253Z,11.30
2018-03-24T17:26:41.436Z,11.20
2018-03-24T17:29:07.895Z,11.20
2018-03-24T17:31:34.094Z,11.10
2018-03-24T17:34:00.376Z,11.10
2018-03-24T17:36:26.610Z,11.00
2018-03-24T17:38:52.869Z,11.00
2018-03-24T17:41:19.169Z,10.90
2018-03-24T17:43:45.439Z,10.90
2018-03-24T17:46:11.667Z,10.80
2018-03-24T17:48:38.645Z,10.70
2018-03-24T17:51:04.900Z,10.70
2018-03-24T17:53:31.140Z,10.60
2018-03-24T18:05:42.444Z,10.50
2018-03-24T18:08:09.445Z,10.30
2018-03-24T18:20:20.749Z,10.20
2018-03-24T18:22:48.499Z,10.30
2018-03-24T18:25:16.573Z,10.50
2018-03-24T18:27:43.562Z,10.60
2018-03-24T18:30:09.773Z,10.60
2018-03-24T18:32:36.384Z,10.60
2018-03-24T18:35:03.353Z,10.70
2018-03-24T18:37:29.986Z,10.70
2018-03-24T18:39:56.200Z,10.70
2018-03-24T18:42:23.173Z,10.50
2018-03-24T18:44:50.129Z,10.60
2018-03-24T18:47:16.347Z,10.70
2018-03-24T18:49:42.910Z,9.90
2018-03-24T18:54:37.379Z,10.50
2018-03-24T18:57:05.585Z,10.30
2018-03-24T18:59:31.856Z,10.20
2018-03-24T19:01:58.157Z,10.10
2018-03-24T19:04:24.420Z,10.10
2018-03-24T19:06:51.047Z,10.10
2018-03-24T19:09:17.313Z,10.10
2018-03-24T19:11:43.551Z,10.30
2018-03-24T19:14:09.789Z,10.10
2018-03-24T19:16:36.081Z,10.00
2018-03-24T19:19:03.076Z,10.00
2018-03-24T19:21:29.276Z,10.10
2018-03-24T19:23:55.563Z,9.70
2018-03-24T19:26:23.183Z,9.90
2018-03-24T19:28:50.347Z,9.70
2018-03-24T19:31:16.749Z,9.70
2018-03-24T19:33:44.753Z,9.60
2018-03-24T19:36:12.221Z,9.40
2018-03-24T19:38:38.500Z,9.70
2018-03-24T19:41:05.496Z,9.40
2018-03-24T19:43:32.518Z,9.40
2018-03-24T19:45:59.319Z,9.40
2018-03-24T19:48:26.515Z,9.30
2018-03-24T19:50:54.079Z,9.30
2018-03-24T19:53:21.409Z,9.30
2018-03-24T19:55:48.431Z,9.30
2018-03-24T19:58:15.078Z,9.30
2018-03-24T20:00:42.700Z,9.30
2018-03-24T20:03:08.888Z,9.20
2018-03-24T20:05:35.935Z,9.20
2018-03-24T20:08:03.081Z,9.10
2018-03-24T20:10:30.160Z,9.00
2018-03-24T20:12:56.393Z,9.00
2018-03-24T20:15:22.612Z,8.90
2018-03-24T20:17:49.837Z,8.90
2018-03-24T20:20:17.045Z,8.90
2018-03-24T20:22:43.295Z,8.80
2018-03-24T20:27:38.202Z,8.90
2018-03-24T20:30:04.474Z,9.10
2018-03-24T20:32:32.341Z,8.60
2018-03-24T20:34:59.370Z,8.40
2018-03-24T20:37:25.999Z,8.50
2018-03-24T20:39:53.852Z,8.20
2018-03-24T20:42:20.854Z,10.00
2018-03-24T20:44:47.404Z,8.20
2018-03-24T20:47:13.640Z,8.10
2018-03-24T20:49:40.812Z,8.00
2018-03-24T20:52:07.735Z,8.00
2018-03-24T20:54:34.018Z,8.00
2018-03-24T20:57:00.960Z,8.10
2018-03-24T20:59:28.147Z,8.00
2018-03-24T21:01:54.747Z,8.00
2018-03-24T21:04:21.748Z,8.00
2018-03-24T21:06:48.038Z,8.00
2018-03-24T21:09:15.067Z,8.00
2018-03-24T21:11:42.041Z,7.80
2018-03-24T21:14:09.875Z,7.60
2018-03-24T21:16:38.707Z,7.50
2018-03-24T21:19:04.989Z,7.40
2018-03-24T21:21:32.152Z,7.40
2018-03-24T21:23:59.396Z,7.60
2018-03-24T21:26:27.478Z,7.50
2018-03-24T21:28:54.803Z,7.40
2018-03-24T21:31:21.120Z,7.10
2018-03-24T21:33:49.278Z,7.50
2018-03-24T21:36:17.713Z,7.40
2018-03-24T21:38:45.510Z,7.50
2018-03-24T21:41:12.701Z,7.40
2018-03-24T21:43:39.134Z,7.30
2018-03-24T21:46:06.779Z,7.30
2018-03-24T21:48:33.031Z,7.60
2018-03-24T21:51:00.635Z,7.40
2018-03-24T21:53:27.132Z,6.90
2018-03-24T21:55:54.035Z,7.70
2018-03-24T21:58:21.240Z,7.50
2018-03-24T22:00:47.886Z,7.10
2018-03-24T22:03:14.920Z,7.40
2018-03-24T22:05:42.901Z,7.30
2018-03-24T22:08:10.235Z,7.10
2018-03-24T22:10:37.583Z,7.10
2018-03-24T22:13:03.822Z,6.90
2018-03-24T22:15:31.777Z,6.40
2018-03-24T22:17:59.545Z,6.70
2018-03-24T22:20:26.533Z,6.70
2018-03-24T22:22:52.923Z,7.80
2018-03-24T22:25:22.124Z,6.50
2018-03-24T22:27:48.390Z,6.80
2018-03-24T22:30:15.234Z,6.50
2018-03-24T22:32:42.120Z,7.00
2018-03-24T22:35:08.883Z,7.20
2018-03-24T22:37:36.259Z,7.00
2018-03-24T22:40:03.391Z,7.00
2018-03-24T22:42:30.479Z,7.00
2018-03-24T22:54:41.754Z,6.90
2018-03-24T22:57:10.117Z,6.80
2018-03-24T22:59:37.540Z,6.90
2018-03-24T23:14:18.946Z,6.80
2018-03-24T23:21:42.745Z,6.20
2018-03-24T23:24:10.147Z,6.50
2018-03-24T23:29:05.973Z,6.80
2018-03-24T23:31:34.125Z,8.00
2018-03-24T23:34:02.301Z,6.30
2018-03-24T23:38:59.375Z,6.40
2018-03-24T23:41:28.060Z,6.50
2018-03-24T23:43:54.337Z,6.50
2018-03-24T23:46:21.016Z,6.50
2018-03-24T23:48:47.982Z,6.40
2018-03-24T23:51:16.886Z,6.40
2018-03-24T23:53:45.221Z,6.50
2018-03-24T23:56:12.786Z,6.40
2018-03-24T23:58:41.370Z,6.40
